岡山グライダークラブ活動状況掲示板

岡山グライダークラブ
岡山市浦安南町639-1 岡南飛行場
 使用機:シャイベ式 SF25C型 ファルケ   JA2330
      ヴァレンティン式17E型 タイフーン  JA2342
 練習日:毎日曜日  クラブルーム:電話 086-265-1810
この掲示板は岡山グライダークラブの活動状況をお知らせする掲示板です。
!!!この掲示板は投稿規制をしています。!!!
クラブ関連各種情報は 岡山グライダークラブクラブルーム      を       .
  ブリーフイング情報は  岡山グライダークラブブリーフィングルーム  をご覧下さい。 .
※写真はクリックすると拡大して見ることが出来ます。
岡南飛行場へのアクセス等は 岡南飛行場管理事務所 をご覧ください。
クラブの ホームページ ができました。

!!!緊急事態宣言、まん延防止等重点措置の解除に伴い、見学者等の受入を再開します。なお、来所の際には、こちらを順守願います。

 
08月22日
by OGC at 2021/8/22(日) 20:02:22 No.20210822195847  削除コメント
1024 x 768 x 70,967バイト
No.1

08月22日
本日の参加者
  会員      15名
  その他      0名


@本日の様子






METAR
RJBK 220000Z VRB01KT 30KM FEW015CU SCT050CU BKN080AC 27/25 Q1012 A2988
RJOB 220000Z VRB02KT 9999 FEW010 SCT060 BKN180 26/23 Q10131
RJOT 220000Z 26003KT 190V320 9999 FEW025 BKN/// 30/23 Q1012
RJOA 220000Z 22004KT 180V270 9999 FEW001 SCT006 BKN035 24/23 Q1013
TAF
RJOB 212308Z 2200/2306 22006KT 8000 -SHRA FEW008 SCT015 BKN025
       TEMPO 2206/2212 4000 SHRA BR BCFG FEW000 BKN008 BKN015
       BECMG 2208/2210 05004KT
       TEMPO 2212/2221 3000 SHRA BR BCFG FEW000 BKN005 BKN010
       BECMG 2221/2300 22005KT
RJOT 212306Z 2200/2306 15004KT 9999 FEW020 BKN045
       BECMG 2200/2202 26005KT
       BECMG 2208/2210 15004KT
       BECMG 2300/2303 28006KT
RJOA 212309Z 2200/2306 22005KT 8000 -SHRA FEW005 SCT008 BKN020
       TEMPO 2200/2206 4000 -SHRA BR BCFG FEW000 BKN008 BKN015
       TEMPO 2206/2210 3000 -SHRA BR BCFG FEW000 BKN008 BKN015
       BECMG 2210/2212 4000 -SHRA BR
       TEMPO 2212/2221 1500 -SHRA BR BCFG FEW000 SCT003 BKN005
       BECMG 2221/2300 9999 NSW

本日の天候は曇り,午後から雨も予想されていましたが、中断することなくフライトができました。
ファルケの耐空検査も終わり、久しぶりに訓練フライトを楽しんでいました。
また、一方、タイフーンは今日から耐空検査前の整備に入りました。


解散    17:00

1番機  11:35離陸 撤収機  12:00着陸 

SF25C JA2330 ファルケ     09Flt.3h25min  
17E   JA2342 タイフーン    00Flt.0h00min
合計                    09Flt.3h25min

    << 戻る || ホームページ || 最新の掲示板へ